Terminal Aerodrome Forecast
Issued by NWS

Home | Current Version | Previous Version | Text Only | Print | Product List | Glossary On
Versions: 1 2 3 4 5 6 7 8 9 10 11 12 13 14 15 16 17 18 19
342
FTUS43 KMQT 261732
TAFIWD
TAF
KIWD 261732Z 2618/2718 18006KT P6SM OVC070
     FM262200 18006KT P6SM VCSH BKN050
     FM270400 20005KT P6SM BKN050
     FM270800 21005KT P6SM SCT070=

USA.gov is the U.S. government's official web portal to all federal, state and local government web resources and services.